Time;durP1;ratioP1;P1;durP2;ratioP2;P2;SDS_P1;SDS_P2;PMS_P1;PMS_P2;Temp;Humidity;BMP_temperature;BMP_pressure;BME280_temperature;BME280_humidity;BME280_pressure;Samples;Min_cycle;Max_cycle;Signal;HPM_P1;HPM_P2
2022/01/16 00:00:26;;;;;;;;;;;-0.80;99.90;;;;;;5032046;28;20460;-51
2022/01/16 00:05:38;;;;;;;;;;;-0.70;99.90;;;;;;5032062;28;20059;-51
2022/01/16 00:08:04;;;;;;;;;;;-0.80;99.90;;;;;;5032342;28;19967;-51
2022/01/16 00:10:31;;;;;;;;;;;-0.80;99.90;;;;;;5032266;28;20332;-52
2022/01/16 00:13:00;;;;;;;;;;;-0.80;99.90;;;;;;5032413;28;19929;-50
2022/01/16 00:15:27;;;;;;;;;;;-0.80;99.90;;;;;;5031391;28;19968;-50
2022/01/16 00:17:56;;;;;;;;;;;-0.90;99.90;;;;;;5031909;28;19925;-51
2022/01/16 00:20:25;;;;;;;;;;;-0.90;99.90;;;;;;5032077;28;20423;-52
2022/01/16 00:22:52;;;;;;;;;;;-0.90;99.90;;;;;;5032085;28;19925;-52
2022/01/16 00:25:19;;;;;;;;;;;-1.00;99.90;;;;;;5031580;28;19925;-51
2022/01/16 00:27:45;;;;;;;;;;;-1.00;99.90;;;;;;5031491;28;19947;-51
2022/01/16 00:30:14;;;;;;;;;;;-1.10;99.90;;;;;;5031717;28;20409;-51
2022/01/16 00:32:41;;;;;;;;;;;-1.10;99.90;;;;;;5031993;28;19933;-51
2022/01/16 00:35:08;;;;;;;;;;;-1.10;99.90;;;;;;5031464;28;19925;-52
2022/01/16 00:37:35;;;;;;;;;;;-1.10;99.90;;;;;;5031978;28;20379;-51
2022/01/16 00:40:02;;;;;;;;;;;-1.10;99.90;;;;;;5031763;28;19971;-52
2022/01/16 00:42:29;;;;;;;;;;;-1.10;99.90;;;;;;5031083;28;19979;-51
2022/01/16 00:44:55;;;;;;;;;;;-1.00;99.90;;;;;;5032092;28;20452;-51
2022/01/16 00:47:24;;;;;;;;;;;-1.10;99.90;;;;;;5024284;28;19925;-52
2022/01/16 00:49:50;;;;;;;;;;;-1.10;99.90;;;;;;5031416;28;19991;-51
2022/01/16 00:52:19;;;;;;;;;;;-1.00;99.90;;;;;;5031082;28;19929;-50
2022/01/16 00:54:45;;;;;;;;;;;-1.00;99.90;;;;;;5031953;28;19925;-51
2022/01/16 00:57:12;;;;;;;;;;;-0.90;99.90;;;;;;5031622;28;19985;-52
2022/01/16 00:59:40;;;;;;;;;;;-1.00;99.90;;;;;;5031521;28;20354;-50
2022/01/16 01:02:06;;;;;;;;;;;-1.00;99.90;;;;;;5031281;28;19960;-52
2022/01/16 01:04:34;;;;;;;;;;;-1.00;99.90;;;;;;5031724;28;19925;-50
2022/01/16 01:07:01;;;;;;;;;;;-1.10;99.90;;;;;;5031934;28;20316;-51
2022/01/16 01:09:28;;;;;;;;;;;-1.10;99.90;;;;;;5031358;28;20374;-52
2022/01/16 01:11:55;;;;;;;;;;;-1.10;99.90;;;;;;5030793;28;19937;-51
2022/01/16 01:14:26;;;;;;;;;;;-1.00;99.90;;;;;;5035654;28;19929;-51
2022/01/16 01:16:55;;;;;;;;;;;-1.00;99.90;;;;;;5035875;28;20390;-50
2022/01/16 01:19:24;;;;;;;;;;;-1.10;99.90;;;;;;5035237;28;19925;-51
2022/01/16 01:21:52;;;;;;;;;;;-1.10;99.90;;;;;;5034913;28;19932;-53
2022/01/16 01:24:19;;;;;;;;;;;-1.10;99.90;;;;;;5034775;28;19979;-51
2022/01/16 01:26:53;;;;;;;;;;;-1.20;99.90;;;;;;5035583;28;20346;-50
2022/01/16 01:29:21;;;;;;;;;;;-1.40;99.90;;;;;;5035251;28;20391;-51
2022/01/16 01:31:48;;;;;;;;;;;-1.40;99.90;;;;;;5035037;28;19926;-51
2022/01/16 01:34:15;;;;;;;;;;;-1.40;99.90;;;;;;5035353;28;19926;-51
2022/01/16 01:36:42;;;;;;;;;;;-1.30;99.90;;;;;;5034992;28;19972;-51
2022/01/16 01:39:10;;;;;;;;;;;-1.30;99.90;;;;;;5034652;28;19979;-51
2022/01/16 01:41:37;;;;;;;;;;;-1.20;99.90;;;;;;5035030;28;19925;-51
2022/01/16 01:52:19;;;;;;;;;;;-1.40;99.90;;;;;;5034693;28;20083;-52
2022/01/16 01:54:47;;;;;;;;;;;-1.30;99.90;;;;;;5034826;28;20276;-51
2022/01/16 01:57:14;;;;;;;;;;;-1.30;99.90;;;;;;5034727;28;19925;-52
2022/01/16 01:59:41;;;;;;;;;;;-1.30;99.90;;;;;;5034640;28;19975;-50
2022/01/16 02:02:08;;;;;;;;;;;-1.30;99.90;;;;;;5034103;28;20433;-52
2022/01/16 02:04:35;;;;;;;;;;;-1.30;99.90;;;;;;5034794;28;19979;-52
2022/01/16 02:07:01;;;;;;;;;;;-1.30;99.90;;;;;;5034196;28;19979;-52
2022/01/16 02:09:28;;;;;;;;;;;-1.40;99.90;;;;;;5060989;22;19924;-51
2022/01/16 02:11:56;;;;;;;;;;;-1.40;99.90;;;;;;5054575;28;19924;-52
2022/01/16 02:14:29;;;;;;;;;;;-1.30;99.90;;;;;;5054849;28;19924;-52
2022/01/16 02:28:13;;;;;;;;;;;-1.60;99.90;;;;;;5054018;28;20014;-52
2022/01/16 02:31:01;;;;;;;;;;;-1.60;99.90;;;;;;5054388;28;19925;-51
2022/01/16 02:36:22;;;;;;;;;;;-1.50;99.90;;;;;;5052071;28;20302;-51
2022/01/16 02:38:50;;;;;;;;;;;-1.40;99.90;;;;;;5053496;28;19925;-51
2022/01/16 02:41:17;;;;;;;;;;;-1.40;99.90;;;;;;5053927;28;19929;-52
2022/01/16 02:43:48;;;;;;;;;;;-1.40;99.90;;;;;;5053827;28;19925;-51
2022/01/16 02:49:00;;;;;;;;;;;-1.30;99.90;;;;;;5053421;28;20004;-52
2022/01/16 02:51:28;;;;;;;;;;;-1.20;99.90;;;;;;5054249;28;19986;-52
2022/01/16 02:53:56;;;;;;;;;;;-1.20;99.90;;;;;;5053740;28;19978;-52
2022/01/16 02:56:23;;;;;;;;;;;-1.20;99.90;;;;;;5053751;28;19936;-52
2022/01/16 02:58:50;;;;;;;;;;;-1.20;99.90;;;;;;5053433;28;19929;-52
2022/01/16 03:01:17;;;;;;;;;;;-1.20;99.90;;;;;;5053428;28;19978;-51
2022/01/16 03:03:44;;;;;;;;;;;-1.30;99.90;;;;;;5053681;28;19975;-52
2022/01/16 03:06:11;;;;;;;;;;;-1.30;99.90;;;;;;5053648;28;19929;-52
2022/01/16 03:08:37;;;;;;;;;;;-1.30;99.90;;;;;;5053918;28;19932;-52
2022/01/16 03:11:21;;;;;;;;;;;-1.30;99.90;;;;;;5053735;28;19971;-52
2022/01/16 03:13:49;;;;;;;;;;;-1.30;99.90;;;;;;5053149;28;20382;-52
2022/01/16 03:16:16;;;;;;;;;;;-1.30;99.90;;;;;;5053462;28;19929;-52
2022/01/16 03:24:11;;;;;;;;;;;-1.30;99.90;;;;;;5053187;28;19928;-52
2022/01/16 03:26:39;;;;;;;;;;;-1.30;99.90;;;;;;5052590;28;19925;-52
2022/01/16 03:29:06;;;;;;;;;;;-1.30;99.90;;;;;;5052654;28;19925;-52
2022/01/16 03:31:33;;;;;;;;;;;-1.30;99.90;;;;;;5052940;28;19929;-52
2022/01/16 03:33:59;;;;;;;;;;;-1.30;99.90;;;;;;5052518;28;19927;-53
2022/01/16 03:36:26;;;;;;;;;;;-1.40;99.90;;;;;;5052450;28;19925;-52
2022/01/16 03:38:53;;;;;;;;;;;-1.40;99.90;;;;;;5052171;28;20305;-52
2022/01/16 03:41:20;;;;;;;;;;;-1.60;99.90;;;;;;5052633;28;20354;-53
2022/01/16 03:43:48;;;;;;;;;;;-1.70;99.90;;;;;;5052568;28;19925;-52
2022/01/16 03:46:15;;;;;;;;;;;-1.70;99.90;;;;;;5052671;28;20295;-52
2022/01/16 03:48:41;;;;;;;;;;;-1.70;99.90;;;;;;5052098;28;19986;-51
2022/01/16 03:51:08;;;;;;;;;;;-1.80;99.90;;;;;;5051206;28;19975;-51
2022/01/16 03:53:35;;;;;;;;;;;-1.80;99.90;;;;;;5052462;28;19936;-51
2022/01/16 03:56:02;;;;;;;;;;;-1.80;99.90;;;;;;5052572;28;20542;-52
2022/01/16 03:58:28;;;;;;;;;;;-1.80;99.90;;;;;;5050882;28;19924;-51
2022/01/16 04:00:56;;;;;;;;;;;-1.70;99.90;;;;;;5052645;28;19978;-51
2022/01/16 04:03:23;;;;;;;;;;;-1.70;99.90;;;;;;5052205;28;19987;-51
2022/01/16 04:05:50;;;;;;;;;;;-1.80;99.90;;;;;;5051865;28;19924;-52
2022/01/16 04:08:17;;;;;;;;;;;-1.90;99.90;;;;;;5052232;28;19986;-52
2022/01/16 04:10:43;;;;;;;;;;;-1.90;99.90;;;;;;5052252;28;20352;-51
2022/01/16 04:13:12;;;;;;;;;;;-1.90;99.90;;;;;;5051902;28;19975;-52
2022/01/16 04:15:38;;;;;;;;;;;-1.80;99.90;;;;;;5052622;28;19929;-52
2022/01/16 04:18:08;;;;;;;;;;;-1.90;99.90;;;;;;5051843;28;19955;-51
2022/01/16 04:20:35;;;;;;;;;;;-1.80;99.90;;;;;;5052007;28;20448;-52
2022/01/16 04:23:04;;;;;;;;;;;-1.80;99.90;;;;;;5051999;28;19924;-52
2022/01/16 04:25:31;;;;;;;;;;;-2.00;99.90;;;;;;5051690;28;19932;-52
2022/01/16 04:28:01;;;;;;;;;;;-1.90;99.90;;;;;;5049581;28;20541;-51
2022/01/16 04:30:28;;;;;;;;;;;-1.90;99.90;;;;;;5052070;28;19986;-52
2022/01/16 04:32:55;;;;;;;;;;;-2.00;99.90;;;;;;5051856;28;19933;-53
2022/01/16 04:35:23;;;;;;;;;;;-2.00;99.90;;;;;;5051955;28;19925;-52
2022/01/16 04:37:50;;;;;;;;;;;-2.00;99.90;;;;;;5050968;28;19925;-52
2022/01/16 04:40:17;;;;;;;;;;;-1.90;99.90;;;;;;5051494;28;19925;-52
2022/01/16 04:45:28;;;;;;;;;;;-2.10;99.90;;;;;;5052071;28;19932;-52
2022/01/16 04:47:55;;;;;;;;;;;-2.20;99.90;;;;;;5050412;28;19929;-53
2022/01/16 04:50:25;;;;;;;;;;;-2.30;99.90;;;;;;5050262;28;19929;-51
2022/01/16 04:52:52;;;;;;;;;;;-2.30;99.90;;;;;;5052179;28;20017;-53
2022/01/16 04:55:19;;;;;;;;;;;-2.30;99.90;;;;;;5051257;28;19924;-52
2022/01/16 04:57:46;;;;;;;;;;;-2.30;99.90;;;;;;5050928;28;20004;-52
2022/01/16 05:00:15;;;;;;;;;;;-2.30;99.90;;;;;;5044188;28;19925;-51
2022/01/16 05:02:41;;;;;;;;;;;-2.30;99.90;;;;;;5032249;28;19925;-53
2022/01/16 05:05:09;;;;;;;;;;;-2.50;99.90;;;;;;5031946;28;19925;-52
2022/01/16 05:07:37;;;;;;;;;;;-2.50;99.90;;;;;;5035036;28;19966;-52
2022/01/16 05:10:05;;;;;;;;;;;-2.50;99.90;;;;;;5051134;28;19928;-53
2022/01/16 05:12:34;;;;;;;;;;;-2.50;99.90;;;;;;5043294;28;19971;-53
2022/01/16 05:17:46;;;;;;;;;;;-2.50;99.90;;;;;;5036392;28;19927;-53
2022/01/16 05:20:13;;;;;;;;;;;-2.60;99.90;;;;;;5050892;28;19971;-53
2022/01/16 05:22:41;;;;;;;;;;;-2.60;99.90;;;;;;5050912;28;19971;-52
2022/01/16 05:25:11;;;;;;;;;;;-2.60;99.90;;;;;;5051010;28;19971;-54
2022/01/16 05:27:37;;;;;;;;;;;-2.70;99.90;;;;;;5051203;28;19978;-53
2022/01/16 05:30:05;;;;;;;;;;;-2.70;99.90;;;;;;5050830;28;19925;-53
2022/01/16 05:32:31;;;;;;;;;;;-2.60;99.90;;;;;;5050438;28;19924;-52
2022/01/16 05:34:58;;;;;;;;;;;-2.50;99.90;;;;;;5051168;28;19929;-53
2022/01/16 05:37:25;;;;;;;;;;;-2.60;99.90;;;;;;5051486;28;19929;-52
2022/01/16 05:39:53;;;;;;;;;;;-2.60;99.90;;;;;;5050863;28;20448;-52
2022/01/16 05:42:20;;;;;;;;;;;-2.80;99.90;;;;;;5051352;28;20342;-52
2022/01/16 05:44:46;;;;;;;;;;;-2.80;99.90;;;;;;5051805;28;19925;-52
2022/01/16 05:47:13;;;;;;;;;;;-2.90;99.90;;;;;;5051711;28;19925;-52
2022/01/16 05:49:43;;;;;;;;;;;-2.90;99.90;;;;;;5055406;28;20526;-52
2022/01/16 05:52:12;;;;;;;;;;;-2.90;99.90;;;;;;5066181;28;19925;-51
2022/01/16 05:54:39;;;;;;;;;;;-2.90;99.90;;;;;;5067465;28;19924;-53
2022/01/16 05:57:07;;;;;;;;;;;-2.90;99.90;;;;;;5064827;28;20413;-53
2022/01/16 05:59:34;;;;;;;;;;;-2.90;99.90;;;;;;5050908;28;19925;-52
2022/01/16 06:02:01;;;;;;;;;;;-2.80;99.90;;;;;;5054428;28;20302;-52
2022/01/16 06:04:27;;;;;;;;;;;-2.90;99.90;;;;;;5054713;28;19990;-52
2022/01/16 06:06:54;;;;;;;;;;;-2.90;99.90;;;;;;5054710;28;19932;-52
2022/01/16 06:09:21;;;;;;;;;;;-3.10;99.90;;;;;;5053956;28;20078;-53
2022/01/16 06:11:48;;;;;;;;;;;-3.10;99.90;;;;;;5054537;28;19924;-52
2022/01/16 06:14:16;;;;;;;;;;;-3.00;99.90;;;;;;5054160;28;19925;-52
2022/01/16 06:17:01;;;;;;;;;;;-3.00;99.90;;;;;;5054251;28;19925;-51
2022/01/16 06:19:28;;;;;;;;;;;-3.10;99.90;;;;;;5053673;28;19924;-51
2022/01/16 06:21:55;;;;;;;;;;;-3.20;99.90;;;;;;5054249;28;20104;-52
2022/01/16 06:24:22;;;;;;;;;;;-3.30;99.90;;;;;;5054159;28;20371;-51
2022/01/16 06:26:50;;;;;;;;;;;-3.20;99.90;;;;;;5052314;28;19925;-51
2022/01/16 06:29:19;;;;;;;;;;;-3.40;99.90;;;;;;5052531;28;20361;-51
2022/01/16 06:31:46;;;;;;;;;;;-3.40;99.90;;;;;;5052381;28;19982;-51
2022/01/16 06:34:13;;;;;;;;;;;-3.50;99.90;;;;;;5052440;28;20408;-51
2022/01/16 06:36:40;;;;;;;;;;;-3.40;99.90;;;;;;5053517;28;19933;-51
2022/01/16 06:39:08;;;;;;;;;;;-3.50;99.90;;;;;;5053085;28;19970;-51
2022/01/16 06:41:34;;;;;;;;;;;-3.50;99.90;;;;;;5053838;28;20383;-52
2022/01/16 06:44:02;;;;;;;;;;;-3.50;99.90;;;;;;5053957;28;19929;-52
2022/01/16 06:46:30;;;;;;;;;;;-3.50;99.90;;;;;;5055007;28;19924;-52
2022/01/16 06:48:57;;;;;;;;;;;-3.50;99.90;;;;;;5052931;28;19924;-51
2022/01/16 06:51:24;;;;;;;;;;;-3.40;99.90;;;;;;5053020;28;19971;-50
2022/01/16 06:53:53;;;;;;;;;;;-3.40;99.90;;;;;;5053710;28;19924;-52
2022/01/16 06:56:20;;;;;;;;;;;-3.40;99.90;;;;;;5053742;28;20298;-51
2022/01/16 06:58:47;;;;;;;;;;;-3.40;99.90;;;;;;5053762;28;19925;-51
2022/01/16 07:01:14;;;;;;;;;;;-3.50;99.90;;;;;;5053538;28;19985;-51
2022/01/16 07:03:42;;;;;;;;;;;-3.50;99.90;;;;;;5053451;28;19931;-51
2022/01/16 07:06:09;;;;;;;;;;;-3.50;99.90;;;;;;5052279;28;19924;-51
2022/01/16 07:08:36;;;;;;;;;;;-3.50;99.90;;;;;;5035275;28;19929;-52
2022/01/16 07:11:03;;;;;;;;;;;-3.50;99.90;;;;;;5037650;28;19986;-50
2022/01/16 07:13:30;;;;;;;;;;;-3.60;99.90;;;;;;5052504;28;20015;-52
2022/01/16 07:15:57;;;;;;;;;;;-3.60;99.90;;;;;;5053161;28;19986;-52
2022/01/16 07:18:24;;;;;;;;;;;-3.50;99.90;;;;;;5050224;28;19925;-51
2022/01/16 07:20:52;;;;;;;;;;;-3.60;99.90;;;;;;5051571;28;19971;-51
2022/01/16 07:23:19;;;;;;;;;;;-3.60;99.90;;;;;;5053020;28;19925;-52
2022/01/16 07:25:45;;;;;;;;;;;-3.50;99.90;;;;;;5053084;28;19994;-51
2022/01/16 07:28:12;;;;;;;;;;;-3.40;99.90;;;;;;5052524;28;19925;-52
2022/01/16 07:30:39;;;;;;;;;;;-3.30;99.90;;;;;;5052524;28;19965;-51
2022/01/16 07:33:07;;;;;;;;;;;-3.30;99.90;;;;;;5052283;28;19982;-52
2022/01/16 07:35:34;;;;;;;;;;;-3.30;99.90;;;;;;5052133;28;19925;-52
2022/01/16 07:38:07;;;;;;;;;;;-3.30;99.90;;;;;;5048849;28;20467;-51
2022/01/16 07:40:35;;;;;;;;;;;-3.30;99.90;;;;;;5050343;28;20341;-52
2022/01/16 07:43:02;;;;;;;;;;;-3.30;99.90;;;;;;5052454;28;19933;-52
2022/01/16 07:45:29;;;;;;;;;;;-3.30;99.90;;;;;;5043378;28;19929;-52
2022/01/16 07:47:55;;;;;;;;;;;-3.30;99.90;;;;;;5052186;28;19925;-52
2022/01/16 07:50:22;;;;;;;;;;;-3.30;99.90;;;;;;5052775;28;19970;-52
2022/01/16 07:52:49;;;;;;;;;;;-3.20;99.90;;;;;;5053003;28;20259;-51
2022/01/16 07:55:21;;;;;;;;;;;-3.30;99.90;;;;;;5052718;28;19932;-51
2022/01/16 07:57:49;;;;;;;;;;;-3.10;99.90;;;;;;5052338;28;20014;-51
2022/01/16 08:00:17;;;;;;;;;;;-2.90;99.90;;;;;;5052480;28;20356;-53
2022/01/16 08:02:43;;;;;;;;;;;-2.90;99.90;;;;;;5052273;28;19924;-51
2022/01/16 08:05:10;;;;;;;;;;;-3.00;99.90;;;;;;5051284;28;19925;-51
2022/01/16 08:07:37;;;;;;;;;;;-2.80;99.90;;;;;;5051411;28;19964;-51
2022/01/16 08:10:04;;;;;;;;;;;-2.80;99.90;;;;;;5049032;28;19931;-51
2022/01/16 08:12:33;;;;;;;;;;;-2.80;99.90;;;;;;5067712;22;19925;-48
2022/01/16 08:15:00;;;;;;;;;;;-2.90;99.90;;;;;;5051625;28;20039;-50
2022/01/16 08:17:27;;;;;;;;;;;-2.80;99.90;;;;;;5055415;28;19924;-50
2022/01/16 08:19:53;;;;;;;;;;;-2.90;99.90;;;;;;5050512;28;19925;-50
2022/01/16 08:22:20;;;;;;;;;;;-2.90;99.90;;;;;;5032217;28;20373;-50
2022/01/16 08:24:47;;;;;;;;;;;-2.70;99.90;;;;;;5027119;28;19979;-49
2022/01/16 08:27:15;;;;;;;;;;;-2.80;99.90;;;;;;5028041;28;19925;-50
2022/01/16 08:29:43;;;;;;;;;;;-2.70;99.90;;;;;;5028870;28;20717;-50
2022/01/16 08:32:10;;;;;;;;;;;-2.50;99.90;;;;;;5030180;28;19941;-50
2022/01/16 08:34:37;;;;;;;;;;;-2.50;99.90;;;;;;5030518;28;19971;-50
2022/01/16 08:37:04;;;;;;;;;;;-2.30;99.90;;;;;;5031268;28;19925;-50
2022/01/16 08:39:30;;;;;;;;;;;-2.30;99.90;;;;;;5030598;28;19925;-51
2022/01/16 08:41:57;;;;;;;;;;;-2.20;99.90;;;;;;5038179;28;20013;-50
2022/01/16 08:44:24;;;;;;;;;;;-2.40;99.90;;;;;;5030724;28;19929;-50
2022/01/16 08:46:52;;;;;;;;;;;-2.30;99.90;;;;;;5031467;28;19987;-49
2022/01/16 08:49:19;;;;;;;;;;;-2.30;99.90;;;;;;5031046;28;19929;-51
2022/01/16 08:51:45;;;;;;;;;;;-2.50;99.90;;;;;;5031570;28;19925;-50
2022/01/16 08:54:12;;;;;;;;;;;-2.50;99.90;;;;;;5031233;28;19929;-50
2022/01/16 08:56:39;;;;;;;;;;;-2.50;99.90;;;;;;5028118;28;19929;-50
2022/01/16 08:59:06;;;;;;;;;;;-2.50;99.90;;;;;;5022709;28;20534;-50
2022/01/16 09:01:32;;;;;;;;;;;-2.30;99.90;;;;;;5029534;28;19929;-50
2022/01/16 09:04:01;;;;;;;;;;;-2.20;99.90;;;;;;5031127;28;19925;-50
2022/01/16 09:06:28;;;;;;;;;;;-2.30;99.90;;;;;;5033538;28;20418;-50
2022/01/16 09:08:55;;;;;;;;;;;-2.30;99.90;;;;;;5043451;28;19955;-49
2022/01/16 09:11:25;;;;;;;;;;;-2.30;99.90;;;;;;5011434;28;20570;-50
2022/01/16 09:13:52;;;;;;;;;;;-2.30;99.90;;;;;;5020504;28;19932;-50
2022/01/16 09:16:20;;;;;;;;;;;-2.20;99.90;;;;;;5031035;28;19925;-50
2022/01/16 09:18:47;;;;;;;;;;;-2.30;99.90;;;;;;5034956;28;19929;-49
2022/01/16 09:21:16;;;;;;;;;;;-2.10;99.90;;;;;;5051028;28;20020;-49
2022/01/16 09:23:43;;;;;;;;;;;-1.90;99.90;;;;;;5051087;28;19939;-50
2022/01/16 09:26:10;;;;;;;;;;;-1.90;99.90;;;;;;5051336;28;19925;-49
2022/01/16 09:28:37;;;;;;;;;;;-1.70;99.90;;;;;;5051276;28;20002;-50
2022/01/16 09:31:04;;;;;;;;;;;-1.60;99.90;;;;;;5031826;28;20346;-50
2022/01/16 09:33:31;;;;;;;;;;;-1.60;99.90;;;;;;5029879;28;19971;-50
2022/01/16 09:35:57;;;;;;;;;;;-1.60;99.90;;;;;;5030670;28;19948;-50
2022/01/16 09:38:25;;;;;;;;;;;-1.60;99.90;;;;;;5014902;28;20346;-50
2022/01/16 09:40:52;;;;;;;;;;;-1.70;99.90;;;;;;5031934;28;19924;-50
2022/01/16 09:43:19;;;;;;;;;;;-1.60;99.90;;;;;;5034807;28;19929;-50
2022/01/16 09:45:46;;;;;;;;;;;-1.60;99.90;;;;;;5034898;28;19925;-50
2022/01/16 09:48:13;;;;;;;;;;;-1.80;99.90;;;;;;5034625;28;19925;-49
2022/01/16 09:50:40;;;;;;;;;;;-1.80;99.90;;;;;;5034546;28;19971;-50
2022/01/16 09:53:06;;;;;;;;;;;-1.70;99.90;;;;;;5034286;28;19997;-50
2022/01/16 09:55:34;;;;;;;;;;;-1.90;99.90;;;;;;5034822;28;19925;-49
2022/01/16 09:58:03;;;;;;;;;;;-1.90;99.90;;;;;;5033526;28;19929;-50
2022/01/16 10:00:30;;;;;;;;;;;-1.20;99.90;;;;;;5033278;28;19948;-50
2022/01/16 10:02:57;;;;;;;;;;;-0.70;99.90;;;;;;5034201;28;19979;-50
2022/01/16 10:05:28;;;;;;;;;;;-0.30;99.90;;;;;;5034463;28;20024;-50
2022/01/16 10:07:55;;;;;;;;;;;-0.50;99.90;;;;;;5034037;28;20421;-49
2022/01/16 10:10:25;;;;;;;;;;;-0.10;99.90;;;;;;5034110;28;19925;-49
2022/01/16 10:12:55;;;;;;;;;;;-0.40;99.90;;;;;;5033873;28;19933;-50
2022/01/16 10:15:22;;;;;;;;;;;-0.30;99.90;;;;;;5033801;28;20415;-50
2022/01/16 10:17:50;;;;;;;;;;;-0.10;99.90;;;;;;5032208;28;20045;-49
2022/01/16 10:20:18;;;;;;;;;;;0.00;99.90;;;;;;5032456;28;20390;-50
2022/01/16 10:22:46;;;;;;;;;;;0.10;99.90;;;;;;5033882;28;19956;-51
2022/01/16 10:25:14;;;;;;;;;;;0.10;99.90;;;;;;5034204;28;19987;-50
2022/01/16 10:27:41;;;;;;;;;;;0.20;99.90;;;;;;5033700;28;19925;-50
2022/01/16 10:30:14;;;;;;;;;;;0.30;99.90;;;;;;5033192;28;19980;-50
2022/01/16 10:32:41;;;;;;;;;;;0.40;99.90;;;;;;5033760;28;19925;-50
2022/01/16 10:35:09;;;;;;;;;;;0.30;99.90;;;;;;5033990;28;19937;-50
2022/01/16 10:37:36;;;;;;;;;;;0.00;99.90;;;;;;5034122;28;19929;-50
2022/01/16 10:40:05;;;;;;;;;;;-0.10;99.90;;;;;;5033353;28;20398;-50
2022/01/16 10:42:33;;;;;;;;;;;-0.10;99.90;;;;;;5032650;28;19929;-51
2022/01/16 10:45:05;;;;;;;;;;;-0.10;99.90;;;;;;5032669;28;19925;-50
2022/01/16 10:47:34;;;;;;;;;;;0.10;99.90;;;;;;5033610;28;20063;-50
2022/01/16 10:50:03;;;;;;;;;;;0.20;99.90;;;;;;5033741;28;19988;-50
2022/01/16 10:52:30;;;;;;;;;;;0.10;99.90;;;;;;5031595;28;19924;-49
2022/01/16 10:55:04;;;;;;;;;;;0.40;99.90;;;;;;5032226;28;19932;-50
2022/01/16 10:57:31;;;;;;;;;;;0.50;99.90;;;;;;5032287;28;19929;-51
2022/01/16 11:00:09;;;;;;;;;;;0.80;99.90;;;;;;5032647;28;20376;-51
2022/01/16 11:02:37;;;;;;;;;;;1.00;99.90;;;;;;5030737;28;20392;-50
2022/01/16 11:05:05;;;;;;;;;;;1.20;99.90;;;;;;5032504;28;20534;-50
2022/01/16 11:07:32;;;;;;;;;;;1.30;99.90;;;;;;5031182;28;19933;-51
2022/01/16 11:10:00;;;;;;;;;;;1.20;99.90;;;;;;5032585;28;20354;-49
2022/01/16 11:12:27;;;;;;;;;;;1.40;99.90;;;;;;5030702;28;20306;-49
2022/01/16 11:14:54;;;;;;;;;;;1.40;99.90;;;;;;5032639;28;19929;-50
2022/01/16 11:17:20;;;;;;;;;;;1.30;99.90;;;;;;5032314;28;20039;-51
2022/01/16 11:19:48;;;;;;;;;;;1.30;99.90;;;;;;5032325;28;19925;-51
2022/01/16 11:22:22;;;;;;;;;;;1.60;99.90;;;;;;5032472;28;20445;-50
2022/01/16 11:25:01;;;;;;;;;;;1.80;99.90;;;;;;5032140;28;19925;-50
2022/01/16 11:27:29;;;;;;;;;;;2.10;99.90;;;;;;5032608;28;20028;-50
2022/01/16 11:29:56;;;;;;;;;;;1.90;99.90;;;;;;5031940;28;20356;-50
2022/01/16 11:32:23;;;;;;;;;;;1.90;99.90;;;;;;5032431;28;19929;-50
2022/01/16 11:34:51;;;;;;;;;;;2.00;99.90;;;;;;5032102;28;19925;-50
2022/01/16 11:37:18;;;;;;;;;;;2.00;99.90;;;;;;5032137;28;20410;-51
2022/01/16 11:39:44;;;;;;;;;;;1.70;99.90;;;;;;5032347;28;19937;-51
2022/01/16 11:42:15;;;;;;;;;;;1.50;99.90;;;;;;5031780;28;19984;-51
2022/01/16 11:44:51;;;;;;;;;;;1.40;99.90;;;;;;5032505;28;19929;-51
2022/01/16 11:47:17;;;;;;;;;;;1.50;99.90;;;;;;5032285;28;20036;-50
2022/01/16 11:49:44;;;;;;;;;;;1.70;99.90;;;;;;5031826;28;19929;-50
2022/01/16 11:52:13;;;;;;;;;;;1.70;99.90;;;;;;5031567;28;19991;-51
2022/01/16 11:54:41;;;;;;;;;;;1.90;99.90;;;;;;5031912;28;19925;-51
2022/01/16 11:57:19;;;;;;;;;;;2.20;99.90;;;;;;5031822;28;19979;-50
2022/01/16 11:59:46;;;;;;;;;;;2.30;99.90;;;;;;5031262;28;20035;-51
2022/01/16 12:02:34;;;;;;;;;;;2.20;99.90;;;;;;5031822;28;19937;-51
2022/01/16 12:05:02;;;;;;;;;;;2.10;99.90;;;;;;5028378;28;19929;-51
2022/01/16 12:07:55;;;;;;;;;;;1.90;99.90;;;;;;5031558;28;19925;-50
2022/01/16 12:10:43;;;;;;;;;;;1.80;99.90;;;;;;5031620;28;19979;-50
2022/01/16 12:19:33;;;;;;;;;;;1.60;99.90;;;;;;5031162;28;19978;-50
2022/01/16 12:22:00;;;;;;;;;;;2.20;99.90;;;;;;5030731;28;19932;-51
2022/01/16 12:24:34;;;;;;;;;;;2.50;99.90;;;;;;5031366;28;19929;-51
2022/01/16 12:27:19;;;;;;;;;;;2.60;99.90;;;;;;5031580;28;19995;-50
2022/01/16 12:30:04;;;;;;;;;;;2.70;99.90;;;;;;5017656;28;20391;-50
2022/01/16 12:32:52;;;;;;;;;;;2.70;99.90;;;;;;5030769;28;19929;-51
2022/01/16 12:35:34;;;;;;;;;;;2.60;99.90;;;;;;5031347;28;20020;-51
2022/01/16 12:38:05;;;;;;;;;;;2.70;99.90;;;;;;5018692;28;20292;-51
2022/01/16 12:40:32;;;;;;;;;;;2.70;99.90;;;;;;5030100;28;19932;-51
2022/01/16 12:43:00;;;;;;;;;;;2.70;99.90;;;;;;5031444;28;19925;-51
2022/01/16 12:45:27;;;;;;;;;;;2.70;99.90;;;;;;5030438;28;19925;-50
2022/01/16 12:47:55;;;;;;;;;;;2.70;99.90;;;;;;5031459;28;19929;-51
2022/01/16 12:50:22;;;;;;;;;;;2.60;99.90;;;;;;5031180;28;20010;-51
2022/01/16 12:52:49;;;;;;;;;;;2.70;99.90;;;;;;5031729;28;19929;-50
2022/01/16 12:55:16;;;;;;;;;;;2.70;99.90;;;;;;5031594;28;20466;-51
2022/01/16 12:57:42;;;;;;;;;;;2.50;99.90;;;;;;5031450;28;19925;-51
2022/01/16 13:00:10;;;;;;;;;;;2.50;99.90;;;;;;5031405;28;20307;-51
2022/01/16 13:02:37;;;;;;;;;;;2.50;99.90;;;;;;5031514;28;19932;-51
2022/01/16 13:05:06;;;;;;;;;;;2.50;99.90;;;;;;5031341;28;20403;-50
2022/01/16 13:07:33;;;;;;;;;;;2.50;99.90;;;;;;5031106;28;19979;-51
2022/01/16 13:10:00;;;;;;;;;;;2.80;99.90;;;;;;5032788;28;19932;-51
2022/01/16 13:12:27;;;;;;;;;;;3.00;99.90;;;;;;5034865;28;19978;-51
2022/01/16 13:14:54;;;;;;;;;;;3.20;99.90;;;;;;5035124;28;19929;-51
2022/01/16 13:17:20;;;;;;;;;;;3.20;99.90;;;;;;5034502;28;19925;-50
2022/01/16 13:19:52;;;;;;;;;;;3.00;99.90;;;;;;5034686;28;19971;-50
2022/01/16 13:22:23;;;;;;;;;;;3.00;99.90;;;;;;5023696;28;20280;-50
2022/01/16 13:24:51;;;;;;;;;;;2.90;99.90;;;;;;5034517;28;19925;-50
2022/01/16 13:27:18;;;;;;;;;;;3.00;99.90;;;;;;5035031;28;19925;-51
2022/01/16 13:29:46;;;;;;;;;;;3.20;99.90;;;;;;5034286;28;19932;-50
2022/01/16 13:32:13;;;;;;;;;;;3.10;99.90;;;;;;5035584;28;19925;-51
2022/01/16 13:34:44;;;;;;;;;;;3.30;99.90;;;;;;5035248;28;19925;-50
2022/01/16 13:37:16;;;;;;;;;;;3.40;99.90;;;;;;5035036;28;19929;-50
2022/01/16 13:39:45;;;;;;;;;;;3.10;99.90;;;;;;5034719;28;19925;-51
2022/01/16 13:42:13;;;;;;;;;;;3.10;99.90;;;;;;5035047;28;19928;-51
2022/01/16 13:44:40;;;;;;;;;;;3.10;99.90;;;;;;5035532;28;19932;-50
2022/01/16 13:47:07;;;;;;;;;;;3.30;99.90;;;;;;5034536;28;19925;-50
2022/01/16 13:49:34;;;;;;;;;;;3.10;99.90;;;;;;5034523;28;19964;-52
2022/01/16 13:52:02;;;;;;;;;;;3.10;99.90;;;;;;5034905;28;19961;-52
2022/01/16 13:54:30;;;;;;;;;;;3.00;99.90;;;;;;5034455;28;19925;-51
2022/01/16 13:57:00;;;;;;;;;;;3.00;99.90;;;;;;5035159;28;19925;-52
2022/01/16 13:59:28;;;;;;;;;;;3.00;99.90;;;;;;5034087;28;19932;-50
2022/01/16 14:01:56;;;;;;;;;;;3.10;99.90;;;;;;5034479;28;20012;-50
2022/01/16 14:04:23;;;;;;;;;;;3.30;99.90;;;;;;5034637;28;20338;-51
2022/01/16 14:06:50;;;;;;;;;;;3.50;99.90;;;;;;5034415;28;20303;-51
2022/01/16 14:09:17;;;;;;;;;;;3.80;99.90;;;;;;5033384;28;19979;-50
2022/01/16 14:11:45;;;;;;;;;;;4.10;99.90;;;;;;5059011;22;20107;-52
2022/01/16 14:14:13;;;;;;;;;;;4.20;99.90;;;;;;5055012;28;19924;-52
2022/01/16 14:16:46;;;;;;;;;;;4.30;99.90;;;;;;5055152;28;20195;-52
2022/01/16 14:19:15;;;;;;;;;;;4.60;99.90;;;;;;5053434;28;19931;-52
2022/01/16 14:24:32;;;;;;;;;;;4.80;99.90;;;;;;5053595;28;20011;-52
2022/01/16 14:27:00;;;;;;;;;;;4.80;99.90;;;;;;5054801;28;19978;-52
2022/01/16 14:29:28;;;;;;;;;;;4.80;99.90;;;;;;5054375;28;19963;-53
2022/01/16 14:31:57;;;;;;;;;;;4.70;99.90;;;;;;5054498;28;19971;-52
2022/01/16 14:34:26;;;;;;;;;;;4.50;99.90;;;;;;5054508;28;19931;-52
2022/01/16 14:36:53;;;;;;;;;;;4.00;99.90;;;;;;5051890;28;19925;-52
2022/01/16 14:39:22;;;;;;;;;;;3.60;99.90;;;;;;5045492;28;19929;-52
2022/01/16 14:41:50;;;;;;;;;;;3.60;99.90;;;;;;5053870;28;19924;-52
2022/01/16 14:44:17;;;;;;;;;;;3.30;99.90;;;;;;5053958;28;19929;-52
2022/01/16 14:46:46;;;;;;;;;;;3.20;99.90;;;;;;5054280;28;19932;-52
2022/01/16 14:49:13;;;;;;;;;;;3.20;99.90;;;;;;5054063;28;20364;-51
2022/01/16 14:51:39;;;;;;;;;;;3.10;99.90;;;;;;5052035;28;19955;-52
2022/01/16 14:54:06;;;;;;;;;;;3.00;99.90;;;;;;5054202;28;19929;-52
2022/01/16 14:56:33;;;;;;;;;;;2.90;99.90;;;;;;5054003;28;19925;-52
2022/01/16 14:59:00;;;;;;;;;;;2.70;99.90;;;;;;5053753;28;19932;-51
2022/01/16 15:01:27;;;;;;;;;;;2.70;99.90;;;;;;5053895;28;19928;-52
2022/01/16 15:03:55;;;;;;;;;;;2.70;99.90;;;;;;5054263;28;19925;-52
2022/01/16 15:06:22;;;;;;;;;;;2.70;99.90;;;;;;5053751;28;19929;-52
2022/01/16 15:08:49;;;;;;;;;;;2.80;99.90;;;;;;5053903;28;19968;-52
2022/01/16 15:11:17;;;;;;;;;;;2.70;99.90;;;;;;5053296;28;19929;-52
2022/01/16 15:13:45;;;;;;;;;;;2.80;99.90;;;;;;5053751;28;19931;-52